sensor_id;sensor_type;location;lat;lon;timestamp;pressure;altitude;pressure_sealevel;temperature;humidity
5753;BME280;2901;42.140;24.760;2023-10-08T00:01:36;99709.03;;;16.98;53.74
5753;BME280;2901;42.140;24.760;2023-10-08T00:04:07;99711.41;;;17.06;53.30
5753;BME280;2901;42.140;24.760;2023-10-08T00:06:32;99695.44;;;17.15;52.73
5753;BME280;2901;42.140;24.760;2023-10-08T00:08:58;99707.34;;;17.25;52.67
5753;BME280;2901;42.140;24.760;2023-10-08T00:11:35;99689.63;;;17.33;51.93
5753;BME280;2901;42.140;24.760;2023-10-08T00:14:02;99697.09;;;17.45;51.44
5753;BME280;2901;42.140;24.760;2023-10-08T00:16:30;99697.88;;;17.49;51.30
5753;BME280;2901;42.140;24.760;2023-10-08T00:18:58;99679.41;;;17.53;51.21
5753;BME280;2901;42.140;24.760;2023-10-08T00:21:32;99677.75;;;17.51;51.71
5753;BME280;2901;42.140;24.760;2023-10-08T00:23:59;99671.66;;;17.50;51.48
5753;BME280;2901;42.140;24.760;2023-10-08T00:26:25;99672.72;;;17.45;51.82
5753;BME280;2901;42.140;24.760;2023-10-08T00:29:02;99681.47;;;17.44;52.04
5753;BME280;2901;42.140;24.760;2023-10-08T00:31:47;99674.66;;;17.38;52.50
5753;BME280;2901;42.140;24.760;2023-10-08T00:34:18;99669.44;;;17.38;52.36
5753;BME280;2901;42.140;24.760;2023-10-08T00:36:47;99675.59;;;17.36;52.52
5753;BME280;2901;42.140;24.760;2023-10-08T00:39:13;99675.56;;;17.37;52.40
5753;BME280;2901;42.140;24.760;2023-10-08T00:41:41;99679.06;;;17.36;52.32
5753;BME280;2901;42.140;24.760;2023-10-08T00:44:12;99672.97;;;17.36;52.54
5753;BME280;2901;42.140;24.760;2023-10-08T00:46:42;99676.88;;;17.50;50.09
5753;BME280;2901;42.140;24.760;2023-10-08T00:49:32;99669.50;;;17.91;47.92
5753;BME280;2901;42.140;24.760;2023-10-08T00:52:03;99678.53;;;18.07;47.74
5753;BME280;2901;42.140;24.760;2023-10-08T00:54:49;99673.97;;;18.12;47.15
5753;BME280;2901;42.140;24.760;2023-10-08T00:57:33;99658.38;;;18.09;47.70
5753;BME280;2901;42.140;24.760;2023-10-08T01:00:02;99666.88;;;18.15;46.79
5753;BME280;2901;42.140;24.760;2023-10-08T01:02:30;99664.97;;;18.21;46.26
5753;BME280;2901;42.140;24.760;2023-10-08T01:05:14;99670.84;;;18.27;45.96
5753;BME280;2901;42.140;24.760;2023-10-08T01:07:54;99660.66;;;18.43;45.69
5753;BME280;2901;42.140;24.760;2023-10-08T01:10:21;99663.94;;;18.49;45.39
5753;BME280;2901;42.140;24.760;2023-10-08T01:12:49;99645.38;;;18.55;45.50
5753;BME280;2901;42.140;24.760;2023-10-08T01:15:32;99655.88;;;18.55;45.21
5753;BME280;2901;42.140;24.760;2023-10-08T01:18:01;99661.47;;;18.45;46.39
5753;BME280;2901;42.140;24.760;2023-10-08T01:20:29;99651.47;;;18.31;47.23
5753;BME280;2901;42.140;24.760;2023-10-08T01:22:58;99655.22;;;18.24;47.92
5753;BME280;2901;42.140;24.760;2023-10-08T01:25:23;99652.97;;;18.13;48.30
5753;BME280;2901;42.140;24.760;2023-10-08T01:27:55;99645.47;;;18.03;48.82
5753;BME280;2901;42.140;24.760;2023-10-08T01:30:21;99620.72;;;17.87;49.08
5753;BME280;2901;42.140;24.760;2023-10-08T01:32:46;99642.34;;;17.92;49.35
5753;BME280;2901;42.140;24.760;2023-10-08T01:35:12;99637.22;;;17.89;49.53
5753;BME280;2901;42.140;24.760;2023-10-08T01:37:54;99639.16;;;17.84;49.51
5753;BME280;2901;42.140;24.760;2023-10-08T01:40:21;99631.66;;;17.73;49.51
5753;BME280;2901;42.140;24.760;2023-10-08T01:42:50;99639.50;;;17.73;49.41
5753;BME280;2901;42.140;24.760;2023-10-08T01:45:16;99639.66;;;17.69;49.99
5753;BME280;2901;42.140;24.760;2023-10-08T01:47:43;99633.81;;;17.60;50.29
5753;BME280;2901;42.140;24.760;2023-10-08T01:50:09;99622.75;;;17.51;50.45
5753;BME280;2901;42.140;24.760;2023-10-08T01:52:49;99621.28;;;17.42;50.96
5753;BME280;2901;42.140;24.760;2023-10-08T01:55:16;99610.13;;;17.37;50.82
5753;BME280;2901;42.140;24.760;2023-10-08T01:57:49;99614.63;;;17.32;51.31
5753;BME280;2901;42.140;24.760;2023-10-08T02:00:18;99611.00;;;17.36;50.77
5753;BME280;2901;42.140;24.760;2023-10-08T02:02:52;99603.69;;;17.47;49.61
5753;BME280;2901;42.140;24.760;2023-10-08T02:05:19;99603.56;;;17.50;49.85
5753;BME280;2901;42.140;24.760;2023-10-08T02:07:46;99607.75;;;17.57;49.47
5753;BME280;2901;42.140;24.760;2023-10-08T02:10:12;99603.94;;;17.66;49.47
5753;BME280;2901;42.140;24.760;2023-10-08T02:12:39;99597.75;;;17.69;49.26
5753;BME280;2901;42.140;24.760;2023-10-08T02:15:06;99602.97;;;17.69;49.79
5753;BME280;2901;42.140;24.760;2023-10-08T02:17:32;99600.47;;;17.66;50.17
5753;BME280;2901;42.140;24.760;2023-10-08T02:19:57;99603.94;;;17.66;49.97
5753;BME280;2901;42.140;24.760;2023-10-08T02:22:23;99602.09;;;17.70;49.95
5753;BME280;2901;42.140;24.760;2023-10-08T02:24:48;99608.88;;;17.75;49.35
5753;BME280;2901;42.140;24.760;2023-10-08T02:27:16;99615.69;;;17.81;48.92
5753;BME280;2901;42.140;24.760;2023-10-08T02:29:41;99609.38;;;17.86;48.11
5753;BME280;2901;42.140;24.760;2023-10-08T02:32:07;99611.75;;;17.94;47.21
5753;BME280;2901;42.140;24.760;2023-10-08T02:34:33;99597.72;;;17.95;46.58
5753;BME280;2901;42.140;24.760;2023-10-08T02:36:58;99597.53;;;18.01;46.22
5753;BME280;2901;42.140;24.760;2023-10-08T02:39:25;99596.78;;;17.97;45.53
5753;BME280;2901;42.140;24.760;2023-10-08T02:41:55;99580.81;;;18.03;45.36
5753;BME280;2901;42.140;24.760;2023-10-08T02:44:23;99582.47;;;18.06;45.36
5753;BME280;2901;42.140;24.760;2023-10-08T02:46:49;99589.44;;;18.07;45.46
5753;BME280;2901;42.140;24.760;2023-10-08T02:49:18;99584.19;;;18.07;45.94
5753;BME280;2901;42.140;24.760;2023-10-08T02:51:50;99579.81;;;18.07;46.45
5753;BME280;2901;42.140;24.760;2023-10-08T02:54:17;99573.59;;;18.10;46.64
5753;BME280;2901;42.140;24.760;2023-10-08T02:56:52;99580.75;;;18.05;46.66
5753;BME280;2901;42.140;24.760;2023-10-08T02:59:20;99586.81;;;18.07;46.78
5753;BME280;2901;42.140;24.760;2023-10-08T03:01:50;99588.78;;;18.00;46.91
5753;BME280;2901;42.140;24.760;2023-10-08T03:04:18;99587.88;;;18.01;47.04
5753;BME280;2901;42.140;24.760;2023-10-08T03:06:47;99571.44;;;17.98;46.86
5753;BME280;2901;42.140;24.760;2023-10-08T03:09:17;99573.06;;;18.00;46.00
5753;BME280;2901;42.140;24.760;2023-10-08T03:11:51;99571.88;;;18.09;45.75
5753;BME280;2901;42.140;24.760;2023-10-08T03:14:18;99556.72;;;17.94;45.80
5753;BME280;2901;42.140;24.760;2023-10-08T03:16:54;99584.88;;;18.12;44.44
5753;BME280;2901;42.140;24.760;2023-10-08T03:19:32;99576.47;;;18.27;43.45
5753;BME280;2901;42.140;24.760;2023-10-08T03:21:57;99576.13;;;18.36;43.33
5753;BME280;2901;42.140;24.760;2023-10-08T03:24:23;99571.53;;;18.43;42.85
5753;BME280;2901;42.140;24.760;2023-10-08T03:26:59;99564.63;;;18.40;42.75
5753;BME280;2901;42.140;24.760;2023-10-08T03:29:48;99569.78;;;18.42;42.38
5753;BME280;2901;42.140;24.760;2023-10-08T03:32:14;99573.31;;;18.41;42.88
5753;BME280;2901;42.140;24.760;2023-10-08T03:34:47;99575.91;;;18.42;42.70
5753;BME280;2901;42.140;24.760;2023-10-08T03:37:17;99574.19;;;18.41;42.92
5753;BME280;2901;42.140;24.760;2023-10-08T03:39:50;99570.63;;;18.44;42.56
5753;BME280;2901;42.140;24.760;2023-10-08T03:42:26;99567.19;;;18.42;42.49
5753;BME280;2901;42.140;24.760;2023-10-08T03:44:59;99565.41;;;18.42;42.23
5753;BME280;2901;42.140;24.760;2023-10-08T03:47:35;99562.00;;;18.40;42.34
5753;BME280;2901;42.140;24.760;2023-10-08T03:50:06;99572.31;;;18.45;41.93
5753;BME280;2901;42.140;24.760;2023-10-08T03:52:31;99558.16;;;18.49;41.96
5753;BME280;2901;42.140;24.760;2023-10-08T03:55:02;99570.22;;;18.54;41.84
5753;BME280;2901;42.140;24.760;2023-10-08T03:57:52;99568.41;;;18.56;41.75
5753;BME280;2901;42.140;24.760;2023-10-08T04:00:22;99574.53;;;18.57;41.70
5753;BME280;2901;42.140;24.760;2023-10-08T04:02:57;99580.59;;;18.57;42.31
5753;BME280;2901;42.140;24.760;2023-10-08T04:05:26;99568.56;;;18.52;42.20
5753;BME280;2901;42.140;24.760;2023-10-08T04:07:53;99577.38;;;18.49;42.50
5753;BME280;2901;42.140;24.760;2023-10-08T04:10:25;99567.00;;;18.46;42.39
5753;BME280;2901;42.140;24.760;2023-10-08T04:13:06;99574.94;;;18.45;42.83
5753;BME280;2901;42.140;24.760;2023-10-08T04:15:35;99575.03;;;18.42;42.46
5753;BME280;2901;42.140;24.760;2023-10-08T04:18:06;99575.75;;;18.47;42.24
5753;BME280;2901;42.140;24.760;2023-10-08T04:20:32;99575.91;;;18.42;42.40
5753;BME280;2901;42.140;24.760;2023-10-08T04:23:09;99570.94;;;18.35;42.66
5753;BME280;2901;42.140;24.760;2023-10-08T04:25:46;99570.81;;;18.38;42.27
5753;BME280;2901;42.140;24.760;2023-10-08T04:28:16;99563.06;;;18.35;42.30
5753;BME280;2901;42.140;24.760;2023-10-08T04:30:46;99576.47;;;18.27;42.57
5753;BME280;2901;42.140;24.760;2023-10-08T04:33:16;99568.72;;;18.24;42.54
5753;BME280;2901;42.140;24.760;2023-10-08T04:35:43;99564.16;;;18.29;42.16
5753;BME280;2901;42.140;24.760;2023-10-08T04:38:24;99574.75;;;18.26;42.38
5753;BME280;2901;42.140;24.760;2023-10-08T04:40:54;99576.78;;;18.18;42.71
5753;BME280;2901;42.140;24.760;2023-10-08T04:43:21;99577.00;;;18.12;43.09
5753;BME280;2901;42.140;24.760;2023-10-08T04:45:54;99578.97;;;18.07;43.29
5753;BME280;2901;42.140;24.760;2023-10-08T04:48:22;99577.34;;;18.03;43.17
5753;BME280;2901;42.140;24.760;2023-10-08T04:50:49;99579.84;;;18.06;42.87
5753;BME280;2901;42.140;24.760;2023-10-08T04:53:25;99579.06;;;18.04;43.13
5753;BME280;2901;42.140;24.760;2023-10-08T04:56:00;99586.75;;;18.08;43.17
5753;BME280;2901;42.140;24.760;2023-10-08T04:58:31;99586.75;;;18.08;43.00
5753;BME280;2901;42.140;24.760;2023-10-08T05:01:06;99584.84;;;18.13;42.88
5753;BME280;2901;42.140;24.760;2023-10-08T05:03:53;99587.38;;;18.15;42.19
5753;BME280;2901;42.140;24.760;2023-10-08T05:06:26;99579.28;;;18.21;41.56
5753;BME280;2901;42.140;24.760;2023-10-08T05:09:03;99576.38;;;18.30;41.19
5753;BME280;2901;42.140;24.760;2023-10-08T05:11:55;99578.63;;;18.39;40.65
5753;BME280;2901;42.140;24.760;2023-10-08T05:14:22;99580.00;;;18.49;40.43
5753;BME280;2901;42.140;24.760;2023-10-08T05:17:14;99569.31;;;18.55;40.34
5753;BME280;2901;42.140;24.760;2023-10-08T05:19:45;99566.41;;;18.63;39.90
5753;BME280;2901;42.140;24.760;2023-10-08T05:22:21;99563.47;;;18.71;39.64
5753;BME280;2901;42.140;24.760;2023-10-08T05:24:53;99571.56;;;18.88;39.28
5753;BME280;2901;42.140;24.760;2023-10-08T05:27:39;99563.63;;;18.89;38.79
5753;BME280;2901;42.140;24.760;2023-10-08T05:33:07;99561.88;;;19.11;38.24
5753;BME280;2901;42.140;24.760;2023-10-08T05:35:43;99559.81;;;19.20;37.89
5753;BME280;2901;42.140;24.760;2023-10-08T05:38:13;99566.63;;;19.24;38.06
5753;BME280;2901;42.140;24.760;2023-10-08T05:40:42;99551.53;;;19.29;37.71
5753;BME280;2901;42.140;24.760;2023-10-08T05:43:36;99557.44;;;19.34;37.01
5753;BME280;2901;42.140;24.760;2023-10-08T05:46:06;99551.06;;;19.41;37.63
5753;BME280;2901;42.140;24.760;2023-10-08T05:48:56;99566.50;;;19.48;37.58
5753;BME280;2901;42.140;24.760;2023-10-08T05:51:35;99554.16;;;19.50;37.57
5753;BME280;2901;42.140;24.760;2023-10-08T05:54:14;99568.69;;;19.59;37.34
5753;BME280;2901;42.140;24.760;2023-10-08T05:56:56;99569.03;;;19.72;36.85
5753;BME280;2901;42.140;24.760;2023-10-08T05:59:31;99554.75;;;19.77;36.07
5753;BME280;2901;42.140;24.760;2023-10-08T06:02:07;99582.94;;;19.94;35.86
5753;BME280;2901;42.140;24.760;2023-10-08T06:04:51;99578.53;;;20.14;35.28
5753;BME280;2901;42.140;24.760;2023-10-08T06:07:41;99577.13;;;20.26;34.83
5753;BME280;2901;42.140;24.760;2023-10-08T06:10:16;99575.84;;;20.36;35.10
5753;BME280;2901;42.140;24.760;2023-10-08T06:13:13;99572.78;;;20.45;34.85
5753;BME280;2901;42.140;24.760;2023-10-08T06:15:45;99590.00;;;20.52;35.01
5753;BME280;2901;42.140;24.760;2023-10-08T06:18:21;99591.56;;;20.56;35.08
5753;BME280;2901;42.140;24.760;2023-10-08T06:20:55;99602.09;;;20.56;34.94
5753;BME280;2901;42.140;24.760;2023-10-08T06:23:22;99589.56;;;20.61;35.24
5753;BME280;2901;42.140;24.760;2023-10-08T06:25:52;99582.69;;;20.59;35.59
5753;BME280;2901;42.140;24.760;2023-10-08T06:28:30;99581.66;;;20.61;35.39
5753;BME280;2901;42.140;24.760;2023-10-08T06:30:55;99584.06;;;20.67;36.12
5753;BME280;2901;42.140;24.760;2023-10-08T06:33:23;99589.31;;;20.67;36.44
5753;BME280;2901;42.140;24.760;2023-10-08T06:35:57;99579.91;;;20.62;36.54
5753;BME280;2901;42.140;24.760;2023-10-08T06:38:39;99583.25;;;20.65;37.08
5753;BME280;2901;42.140;24.760;2023-10-08T06:41:06;99578.69;;;20.69;37.23
5753;BME280;2901;42.140;24.760;2023-10-08T06:43:35;99585.34;;;20.78;36.61
5753;BME280;2901;42.140;24.760;2023-10-08T06:46:02;99583.66;;;20.75;36.97
5753;BME280;2901;42.140;24.760;2023-10-08T06:48:28;99580.78;;;20.81;37.21
5753;BME280;2901;42.140;24.760;2023-10-08T06:50:55;99587.03;;;20.79;36.54
5753;BME280;2901;42.140;24.760;2023-10-08T06:53:24;99585.81;;;20.86;36.57
5753;BME280;2901;42.140;24.760;2023-10-08T06:55:49;99596.34;;;20.86;36.26
5753;BME280;2901;42.140;24.760;2023-10-08T06:58:24;99599.88;;;20.85;35.42
5753;BME280;2901;42.140;24.760;2023-10-08T07:00:51;99593.41;;;20.92;35.14
5753;BME280;2901;42.140;24.760;2023-10-08T07:03:17;99586.03;;;21.00;35.05
5753;BME280;2901;42.140;24.760;2023-10-08T07:05:47;99569.75;;;21.10;34.39
5753;BME280;2901;42.140;24.760;2023-10-08T07:08:33;99578.91;;;21.20;33.89
5753;BME280;2901;42.140;24.760;2023-10-08T07:11:02;99578.63;;;21.27;33.31
5753;BME280;2901;42.140;24.760;2023-10-08T07:13:32;99570.16;;;21.37;33.12
5753;BME280;2901;42.140;24.760;2023-10-08T07:15:58;99574.59;;;21.54;32.90
5753;BME280;2901;42.140;24.760;2023-10-08T07:18:29;99579.97;;;21.69;32.09
5753;BME280;2901;42.140;24.760;2023-10-08T07:20:58;99571.59;;;21.79;31.78
5753;BME280;2901;42.140;24.760;2023-10-08T07:23:27;99575.88;;;21.98;31.34
5753;BME280;2901;42.140;24.760;2023-10-08T07:25:59;99566.41;;;22.11;31.85
5753;BME280;2901;42.140;24.760;2023-10-08T07:28:27;99556.50;;;22.32;30.60
5753;BME280;2901;42.140;24.760;2023-10-08T07:30:54;99552.59;;;22.39;30.40
5753;BME280;2901;42.140;24.760;2023-10-08T07:33:20;99545.88;;;22.49;29.92
5753;BME280;2901;42.140;24.760;2023-10-08T07:35:50;99541.72;;;22.61;30.13
5753;BME280;2901;42.140;24.760;2023-10-08T07:38:55;99545.00;;;22.82;29.35
5753;BME280;2901;42.140;24.760;2023-10-08T07:41:20;99526.06;;;22.89;29.86
5753;BME280;2901;42.140;24.760;2023-10-08T07:43:47;99559.22;;;22.95;29.60
5753;BME280;2901;42.140;24.760;2023-10-08T07:46:27;99549.25;;;23.00;29.68
5753;BME280;2901;42.140;24.760;2023-10-08T07:48:53;99537.22;;;23.10;29.86
5753;BME280;2901;42.140;24.760;2023-10-08T07:51:19;99532.56;;;23.29;29.95
5753;BME280;2901;42.140;24.760;2023-10-08T07:53:48;99537.97;;;23.43;29.93
5753;BME280;2901;42.140;24.760;2023-10-08T07:56:14;99530.91;;;23.58;30.27
5753;BME280;2901;42.140;24.760;2023-10-08T07:58:39;99524.63;;;23.74;29.56
5753;BME280;2901;42.140;24.760;2023-10-08T08:01:06;99531.66;;;23.90;28.97
5753;BME280;2901;42.140;24.760;2023-10-08T08:03:36;99532.78;;;24.00;28.50
5753;BME280;2901;42.140;24.760;2023-10-08T08:06:03;99520.97;;;24.05;28.54
5753;BME280;2901;42.140;24.760;2023-10-08T08:08:34;99511.06;;;24.09;28.80
5753;BME280;2901;42.140;24.760;2023-10-08T08:11:05;99510.97;;;24.10;28.58
5753;BME280;2901;42.140;24.760;2023-10-08T08:13:35;99505.41;;;24.29;28.76
5753;BME280;2901;42.140;24.760;2023-10-08T08:16:01;99507.47;;;24.24;28.38
5753;BME280;2901;42.140;24.760;2023-10-08T08:18:48;99504.28;;;24.33;28.79
5753;BME280;2901;42.140;24.760;2023-10-08T08:21:14;99494.63;;;24.46;28.09
5753;BME280;2901;42.140;24.760;2023-10-08T08:23:46;99498.41;;;24.42;27.94
5753;BME280;2901;42.140;24.760;2023-10-08T08:26:15;99503.88;;;24.53;27.84
5753;BME280;2901;42.140;24.760;2023-10-08T08:28:55;99492.13;;;24.57;28.50
5753;BME280;2901;42.140;24.760;2023-10-08T08:31:23;99494.22;;;24.66;27.96
5753;BME280;2901;42.140;24.760;2023-10-08T08:33:49;99486.28;;;24.66;27.39
5753;BME280;2901;42.140;24.760;2023-10-08T08:36:20;99483.31;;;24.57;27.68
5753;BME280;2901;42.140;24.760;2023-10-08T08:38:46;99490.06;;;24.62;27.38
5753;BME280;2901;42.140;24.760;2023-10-08T08:41:13;99493.63;;;24.75;27.30
5753;BME280;2901;42.140;24.760;2023-10-08T08:43:40;99492.47;;;24.79;27.12
5753;BME280;2901;42.140;24.760;2023-10-08T08:46:09;99485.34;;;24.94;27.54
5753;BME280;2901;42.140;24.760;2023-10-08T08:48:39;99478.00;;;25.12;27.20
5753;BME280;2901;42.140;24.760;2023-10-08T08:51:05;99492.44;;;25.33;27.07
5753;BME280;2901;42.140;24.760;2023-10-08T08:53:33;99478.78;;;25.39;26.93
5753;BME280;2901;42.140;24.760;2023-10-08T08:55:59;99471.16;;;25.47;26.63
5753;BME280;2901;42.140;24.760;2023-10-08T08:58:36;99471.34;;;25.58;26.45
5753;BME280;2901;42.140;24.760;2023-10-08T09:01:07;99463.38;;;25.58;26.58
5753;BME280;2901;42.140;24.760;2023-10-08T09:03:34;99457.72;;;25.75;26.55
5753;BME280;2901;42.140;24.760;2023-10-08T09:06:00;99460.94;;;25.80;26.19
5753;BME280;2901;42.140;24.760;2023-10-08T09:08:33;99459.63;;;25.99;26.07
5753;BME280;2901;42.140;24.760;2023-10-08T09:10:59;99436.47;;;26.13;26.25
5753;BME280;2901;42.140;24.760;2023-10-08T09:13:27;99440.31;;;26.09;26.05
5753;BME280;2901;42.140;24.760;2023-10-08T09:15:57;99439.13;;;26.26;26.14
5753;BME280;2901;42.140;24.760;2023-10-08T09:18:29;99440.81;;;26.40;25.90
5753;BME280;2901;42.140;24.760;2023-10-08T09:21:07;99433.16;;;26.35;25.98
5753;BME280;2901;42.140;24.760;2023-10-08T09:23:39;99439.44;;;26.21;25.92
5753;BME280;2901;42.140;24.760;2023-10-08T09:26:09;99426.03;;;26.36;25.90
5753;BME280;2901;42.140;24.760;2023-10-08T09:28:34;99429.63;;;26.47;25.64
5753;BME280;2901;42.140;24.760;2023-10-08T09:31:03;99437.00;;;26.67;25.77
5753;BME280;2901;42.140;24.760;2023-10-08T09:33:30;99422.50;;;26.71;26.09
5753;BME280;2901;42.140;24.760;2023-10-08T09:35:55;99416.72;;;26.90;25.79
5753;BME280;2901;42.140;24.760;2023-10-08T09:38:28;99425.03;;;26.86;26.19
5753;BME280;2901;42.140;24.760;2023-10-08T09:40:55;99419.09;;;26.82;26.35
5753;BME280;2901;42.140;24.760;2023-10-08T09:43:24;99433.28;;;26.94;26.32
5753;BME280;2901;42.140;24.760;2023-10-08T09:46:09;99439.09;;;26.99;26.14
5753;BME280;2901;42.140;24.760;2023-10-08T09:48:37;99416.97;;;26.98;25.99
5753;BME280;2901;42.140;24.760;2023-10-08T09:51:10;99405.88;;;26.93;26.23
5753;BME280;2901;42.140;24.760;2023-10-08T09:54:09;99413.94;;;26.92;26.12
5753;BME280;2901;42.140;24.760;2023-10-08T09:56:36;99404.25;;;26.91;26.43
5753;BME280;2901;42.140;24.760;2023-10-08T09:59:02;99406.25;;;27.00;26.08
5753;BME280;2901;42.140;24.760;2023-10-08T10:01:28;99393.69;;;27.02;26.46
5753;BME280;2901;42.140;24.760;2023-10-08T10:03:54;99389.03;;;27.27;26.44
5753;BME280;2901;42.140;24.760;2023-10-08T10:06:20;99379.75;;;27.33;25.95
5753;BME280;2901;42.140;24.760;2023-10-08T10:08:47;99392.00;;;27.47;25.79
5753;BME280;2901;42.140;24.760;2023-10-08T10:11:15;99361.78;;;27.48;25.73
5753;BME280;2901;42.140;24.760;2023-10-08T10:13:50;99361.28;;;27.54;25.94
5753;BME280;2901;42.140;24.760;2023-10-08T10:16:18;99382.00;;;27.61;25.55
5753;BME280;2901;42.140;24.760;2023-10-08T10:18:44;99365.44;;;27.69;25.86
5753;BME280;2901;42.140;24.760;2023-10-08T10:23:40;99391.06;;;27.70;25.89
5753;BME280;2901;42.140;24.760;2023-10-08T10:31:44;99366.69;;;27.41;26.42
5753;BME280;2901;42.140;24.760;2023-10-08T10:34:13;99366.47;;;27.33;26.80
5753;BME280;2901;42.140;24.760;2023-10-08T10:36:42;99355.59;;;27.47;26.17
5753;BME280;2901;42.140;24.760;2023-10-08T10:39:09;99344.50;;;27.64;26.55
5753;BME280;2901;42.140;24.760;2023-10-08T10:41:48;99332.25;;;27.73;26.40
5753;BME280;2901;42.140;24.760;2023-10-08T10:44:15;99320.16;;;27.80;26.00
5753;BME280;2901;42.140;24.760;2023-10-08T10:46:41;99316.41;;;27.94;26.09
5753;BME280;2901;42.140;24.760;2023-10-08T10:49:08;99320.00;;;27.93;26.40
5753;BME280;2901;42.140;24.760;2023-10-08T10:51:50;99317.69;;;27.99;27.05
5753;BME280;2901;42.140;24.760;2023-10-08T10:54:38;99313.38;;;28.09;26.50
5753;BME280;2901;42.140;24.760;2023-10-08T10:57:06;99317.63;;;28.12;26.56
5753;BME280;2901;42.140;24.760;2023-10-08T10:59:34;99320.97;;;28.25;26.39
5753;BME280;2901;42.140;24.760;2023-10-08T11:02:04;99305.34;;;28.31;26.65
5753;BME280;2901;42.140;24.760;2023-10-08T11:04:34;99307.81;;;28.44;26.42
5753;BME280;2901;42.140;24.760;2023-10-08T11:07:11;99320.53;;;28.41;26.13
5753;BME280;2901;42.140;24.760;2023-10-08T11:09:37;99305.94;;;28.35;26.91
5753;BME280;2901;42.140;24.760;2023-10-08T11:12:06;99305.88;;;28.46;26.59
5753;BME280;2901;42.140;24.760;2023-10-08T11:14:41;99290.56;;;28.27;26.48
5753;BME280;2901;42.140;24.760;2023-10-08T11:17:14;99300.13;;;28.30;26.73
5753;BME280;2901;42.140;24.760;2023-10-08T11:19:42;99288.25;;;28.34;26.43
5753;BME280;2901;42.140;24.760;2023-10-08T11:22:08;99281.78;;;28.48;26.63
5753;BME280;2901;42.140;24.760;2023-10-08T11:24:41;99272.63;;;28.61;27.02
5753;BME280;2901;42.140;24.760;2023-10-08T11:27:08;99287.88;;;28.59;26.15
5753;BME280;2901;42.140;24.760;2023-10-08T11:29:47;99293.72;;;28.53;26.11
5753;BME280;2901;42.140;24.760;2023-10-08T11:32:13;99268.03;;;28.52;26.34
5753;BME280;2901;42.140;24.760;2023-10-08T11:34:45;99264.63;;;28.61;27.13
5753;BME280;2901;42.140;24.760;2023-10-08T11:37:16;99272.13;;;28.67;26.67
5753;BME280;2901;42.140;24.760;2023-10-08T11:39:51;99279.34;;;28.65;26.75
5753;BME280;2901;42.140;24.760;2023-10-08T11:42:18;99280.28;;;28.55;26.66
5753;BME280;2901;42.140;24.760;2023-10-08T11:45:02;99251.41;;;28.60;26.77
5753;BME280;2901;42.140;24.760;2023-10-08T11:47:46;99245.53;;;28.77;26.58
5753;BME280;2901;42.140;24.760;2023-10-08T11:50:14;99259.78;;;28.66;26.91
5753;BME280;2901;42.140;24.760;2023-10-08T11:52:45;99253.22;;;28.59;26.54
5753;BME280;2901;42.140;24.760;2023-10-08T11:55:12;99252.06;;;28.52;26.76
5753;BME280;2901;42.140;24.760;2023-10-08T11:57:48;99244.66;;;28.56;26.43
5753;BME280;2901;42.140;24.760;2023-10-08T12:00:17;99243.16;;;28.63;27.12
5753;BME280;2901;42.140;24.760;2023-10-08T12:02:49;99250.34;;;28.83;27.18
5753;BME280;2901;42.140;24.760;2023-10-08T12:05:15;99238.78;;;28.73;26.91
5753;BME280;2901;42.140;24.760;2023-10-08T12:07:51;99234.56;;;28.70;26.98
5753;BME280;2901;42.140;24.760;2023-10-08T12:10:20;99243.84;;;28.76;26.87
5753;BME280;2901;42.140;24.760;2023-10-08T12:12:56;99229.34;;;28.69;26.68
5753;BME280;2901;42.140;24.760;2023-10-08T12:15:22;99217.84;;;28.68;26.55
5753;BME280;2901;42.140;24.760;2023-10-08T12:17:52;99213.94;;;28.72;26.75
5753;BME280;2901;42.140;24.760;2023-10-08T12:20:39;99248.16;;;28.88;26.46
5753;BME280;2901;42.140;24.760;2023-10-08T12:23:05;99230.66;;;28.74;26.53
5753;BME280;2901;42.140;24.760;2023-10-08T12:25:32;99222.84;;;28.82;26.29
5753;BME280;2901;42.140;24.760;2023-10-08T12:27:59;99226.13;;;28.96;26.51
5753;BME280;2901;42.140;24.760;2023-10-08T12:30:28;99215.88;;;28.91;26.19
5753;BME280;2901;42.140;24.760;2023-10-08T12:32:59;99210.13;;;28.96;26.29
5753;BME280;2901;42.140;24.760;2023-10-08T12:35:26;99247.84;;;28.81;25.92
5753;BME280;2901;42.140;24.760;2023-10-08T12:37:51;99212.44;;;28.79;26.69
5753;BME280;2901;42.140;24.760;2023-10-08T12:40:16;99207.03;;;28.91;26.58
5753;BME280;2901;42.140;24.760;2023-10-08T12:42:49;99212.97;;;28.94;26.12
5753;BME280;2901;42.140;24.760;2023-10-08T12:45:15;99215.34;;;28.97;26.22
5753;BME280;2901;42.140;24.760;2023-10-08T12:47:49;99219.13;;;28.95;26.30
5753;BME280;2901;42.140;24.760;2023-10-08T12:50:19;99217.78;;;29.10;26.03
5753;BME280;2901;42.140;24.760;2023-10-08T12:53:05;99206.88;;;28.92;25.73
5753;BME280;2901;42.140;24.760;2023-10-08T12:55:31;99225.81;;;28.89;26.21
5753;BME280;2901;42.140;24.760;2023-10-08T12:57:56;99208.59;;;28.93;26.04
5753;BME280;2901;42.140;24.760;2023-10-08T13:00:31;99210.72;;;28.99;26.18
5753;BME280;2901;42.140;24.760;2023-10-08T13:02:57;99207.16;;;28.89;25.81
5753;BME280;2901;42.140;24.760;2023-10-08T13:05:23;99206.56;;;28.85;25.99
5753;BME280;2901;42.140;24.760;2023-10-08T13:07:56;99207.78;;;29.02;25.75
5753;BME280;2901;42.140;24.760;2023-10-08T13:10:23;99216.72;;;29.22;25.37
5753;BME280;2901;42.140;24.760;2023-10-08T13:12:49;99215.50;;;29.26;25.28
5753;BME280;2901;42.140;24.760;2023-10-08T13:15:14;99191.91;;;29.31;25.26
5753;BME280;2901;42.140;24.760;2023-10-08T13:17:40;99191.44;;;29.47;25.40
5753;BME280;2901;42.140;24.760;2023-10-08T13:20:11;99192.72;;;29.22;25.05
5753;BME280;2901;42.140;24.760;2023-10-08T13:22:38;99198.28;;;29.09;25.86
5753;BME280;2901;42.140;24.760;2023-10-08T13:25:03;99193.44;;;28.94;25.60
5753;BME280;2901;42.140;24.760;2023-10-08T13:27:30;99192.66;;;28.82;25.89
5753;BME280;2901;42.140;24.760;2023-10-08T13:29:56;99203.91;;;28.85;26.15
5753;BME280;2901;42.140;24.760;2023-10-08T13:32:21;99184.28;;;28.87;26.26
5753;BME280;2901;42.140;24.760;2023-10-08T13:34:47;99196.81;;;28.96;25.83
5753;BME280;2901;42.140;24.760;2023-10-08T13:37:12;99197.00;;;29.04;26.25
5753;BME280;2901;42.140;24.760;2023-10-08T13:39:40;99190.66;;;29.05;26.52
5753;BME280;2901;42.140;24.760;2023-10-08T13:42:06;99192.38;;;29.06;26.15